Time;durP1;ratioP1;P1;durP2;ratioP2;P2;SDS_P1;SDS_P2;PMS_P1;PMS_P2;Temp;Humidity;BMP_temperature;BMP_pressure;BME280_temperature;BME280_humidity;BME280_pressure;Samples;Min_cycle;Max_cycle;Signal;HPM_P1;HPM_P2
2022/01/28 00:01:35;;;;;;;;;;;5.50;99.90;;;;;;5198244;27;19992;-82
2022/01/28 00:04:12;;;;;;;;;;;5.50;99.90;;;;;;5180397;27;19996;-82
2022/01/28 00:06:39;;;;;;;;;;;5.50;99.90;;;;;;5180356;27;19991;-82
2022/01/28 00:09:07;;;;;;;;;;;5.50;99.90;;;;;;5197186;27;19992;-82
2022/01/28 00:11:34;;;;;;;;;;;5.50;99.90;;;;;;5197660;27;20021;-82
2022/01/28 00:38:44;;;;;;;;;;;5.40;99.90;;;;;;5217141;27;20059;-82
2022/01/28 00:41:11;;;;;;;;;;;5.40;99.90;;;;;;5197311;27;44522;-82
2022/01/28 00:43:39;;;;;;;;;;;5.40;99.90;;;;;;5197488;27;20051;-82
2022/01/28 00:46:06;;;;;;;;;;;5.40;99.90;;;;;;5180974;27;20021;-82
2022/01/28 00:48:33;;;;;;;;;;;5.40;99.90;;;;;;5180100;27;45198;-82
2022/01/28 00:51:00;;;;;;;;;;;5.40;99.90;;;;;;5217326;27;32644;-82
2022/01/28 00:53:27;;;;;;;;;;;5.40;99.90;;;;;;5216554;27;39588;-82
2022/01/28 00:55:54;;;;;;;;;;;5.40;99.90;;;;;;5198412;27;43812;-82
2022/01/28 00:58:22;;;;;;;;;;;5.40;99.90;;;;;;5197654;27;43736;-82
2022/01/28 01:00:49;;;;;;;;;;;5.40;99.90;;;;;;5216406;27;43238;-82
2022/01/28 01:03:16;;;;;;;;;;;5.40;99.90;;;;;;5180316;27;39656;-82
2022/01/28 01:05:43;;;;;;;;;;;5.40;99.90;;;;;;5216769;27;30778;-82
2022/01/28 01:08:10;;;;;;;;;;;5.40;99.90;;;;;;5216326;27;42154;-82
2022/01/28 01:10:37;;;;;;;;;;;5.40;99.90;;;;;;5216908;27;37784;-82
2022/01/28 01:13:04;;;;;;;;;;;5.40;99.90;;;;;;5180309;27;36306;-82
2022/01/28 01:15:36;;;;;;;;;;;5.30;99.90;;;;;;5197584;27;42850;-82
2022/01/28 01:18:20;;;;;;;;;;;5.40;99.90;;;;;;5197713;27;44205;-82
2022/01/28 01:23:28;;;;;;;;;;;5.30;99.90;;;;;;5216879;27;41853;-82
2022/01/28 01:26:05;;;;;;;;;;;5.30;99.90;;;;;;5217197;27;36031;-82
2022/01/28 01:28:36;;;;;;;;;;;5.40;99.90;;;;;;5198164;27;42702;-81
2022/01/28 01:31:05;;;;;;;;;;;5.30;99.90;;;;;;5216714;27;44006;-82
2022/01/28 01:33:42;;;;;;;;;;;5.30;99.90;;;;;;5216759;27;37932;-82
2022/01/28 01:36:09;;;;;;;;;;;5.30;99.90;;;;;;5197987;27;38181;-82
2022/01/28 01:38:39;;;;;;;;;;;5.30;99.90;;;;;;5217099;27;32497;-82
2022/01/28 01:41:11;;;;;;;;;;;5.30;99.90;;;;;;5216647;27;44490;-82
2022/01/28 01:44:01;;;;;;;;;;;5.30;99.90;;;;;;5216495;27;42167;-82
2022/01/28 01:52:06;;;;;;;;;;;5.30;99.90;;;;;;5216571;27;44548;-82
2022/01/28 01:54:38;;;;;;;;;;;5.30;99.90;;;;;;5180017;27;41622;-82
2022/01/28 01:57:06;;;;;;;;;;;5.30;99.90;;;;;;5197223;27;45269;-82
2022/01/28 01:59:33;;;;;;;;;;;5.30;99.90;;;;;;5215964;27;44223;-82
2022/01/28 02:02:01;;;;;;;;;;;5.30;99.90;;;;;;5215850;27;44143;-82
2022/01/28 02:04:28;;;;;;;;;;;5.30;99.90;;;;;;5197601;27;33613;-82
2022/01/28 02:06:56;;;;;;;;;;;5.30;99.90;;;;;;5216743;27;40059;-82
2022/01/28 02:09:23;;;;;;;;;;;5.30;99.90;;;;;;5197271;27;41419;-82
2022/01/28 02:11:50;;;;;;;;;;;5.20;99.90;;;;;;5215784;27;45030;-82
2022/01/28 02:14:17;;;;;;;;;;;5.30;99.90;;;;;;5216863;27;32130;-82
2022/01/28 02:16:45;;;;;;;;;;;5.30;99.90;;;;;;5197236;27;39750;-82
2022/01/28 02:19:12;;;;;;;;;;;5.30;99.90;;;;;;5197379;27;44651;-82
2022/01/28 02:21:47;;;;;;;;;;;5.20;99.90;;;;;;5197901;27;43439;-82
2022/01/28 02:24:17;;;;;;;;;;;5.20;99.90;;;;;;5179646;27;45696;-82
2022/01/28 02:26:44;;;;;;;;;;;5.20;99.90;;;;;;5198578;27;19999;-82
2022/01/28 02:29:15;;;;;;;;;;;5.20;99.90;;;;;;5216620;27;20041;-82
2022/01/28 02:31:42;;;;;;;;;;;5.20;99.90;;;;;;5217433;27;20395;-82
2022/01/28 02:34:11;;;;;;;;;;;5.20;99.90;;;;;;5198860;27;20051;-82
2022/01/28 02:36:38;;;;;;;;;;;5.20;99.90;;;;;;5215948;27;38778;-82
2022/01/28 02:39:06;;;;;;;;;;;5.20;99.90;;;;;;5196793;27;44478;-82
2022/01/28 02:41:38;;;;;;;;;;;5.20;99.90;;;;;;5196684;27;43079;-82
2022/01/28 02:47:00;;;;;;;;;;;5.20;99.90;;;;;;5217062;27;20005;-82
2022/01/28 02:49:33;;;;;;;;;;;5.20;99.90;;;;;;5180847;27;20412;-82
2022/01/28 02:52:01;;;;;;;;;;;5.20;99.90;;;;;;5198702;27;20058;-81
2022/01/28 02:54:29;;;;;;;;;;;5.20;99.90;;;;;;5216885;27;20000;-82
2022/01/28 02:57:03;;;;;;;;;;;5.20;99.90;;;;;;5215561;27;44554;-82
2022/01/28 02:59:31;;;;;;;;;;;5.20;99.90;;;;;;5197884;27;35078;-82
2022/01/28 03:01:58;;;;;;;;;;;5.10;99.90;;;;;;5215823;27;44640;-82
2022/01/28 03:07:08;;;;;;;;;;;5.20;99.90;;;;;;5198286;27;20298;-82
2022/01/28 03:12:31;;;;;;;;;;;5.10;99.90;;;;;;5217256;27;20049;-82
2022/01/28 03:15:03;;;;;;;;;;;5.10;99.90;;;;;;5198370;27;20434;-82
2022/01/28 03:22:46;;;;;;;;;;;5.10;99.90;;;;;;5197954;27;19994;-82
2022/01/28 03:25:14;;;;;;;;;;;5.10;99.90;;;;;;5197431;27;19994;-82
2022/01/28 03:30:09;;;;;;;;;;;5.10;99.90;;;;;;5197228;27;20025;-82
2022/01/28 03:32:36;;;;;;;;;;;5.00;99.90;;;;;;5198375;27;20430;-82
2022/01/28 03:35:23;;;;;;;;;;;5.00;99.90;;;;;;5217048;27;19992;-82
2022/01/28 03:37:58;;;;;;;;;;;5.00;99.90;;;;;;5180066;27;20157;-82
2022/01/28 03:40:27;;;;;;;;;;;5.00;99.90;;;;;;5198171;27;20010;-82
2022/01/28 03:42:54;;;;;;;;;;;5.00;99.90;;;;;;5216835;27;20004;-82
2022/01/28 03:45:21;;;;;;;;;;;5.00;99.90;;;;;;5180406;27;20391;-82
2022/01/28 03:47:48;;;;;;;;;;;5.00;99.90;;;;;;5180134;27;19999;-82
2022/01/28 03:50:15;;;;;;;;;;;5.00;99.90;;;;;;5217233;27;20373;-82
2022/01/28 03:52:42;;;;;;;;;;;4.90;99.90;;;;;;5197232;27;21380;-82
2022/01/28 03:55:09;;;;;;;;;;;4.90;99.90;;;;;;5197713;27;19995;-82
2022/01/28 03:57:36;;;;;;;;;;;4.90;99.90;;;;;;5180360;27;20002;-82
2022/01/28 04:00:05;;;;;;;;;;;4.90;99.90;;;;;;5216895;27;20008;-82
2022/01/28 04:02:36;;;;;;;;;;;4.90;99.90;;;;;;5216206;27;20003;-82
2022/01/28 04:13:05;;;;;;;;;;;4.90;99.90;;;;;;5197440;27;19995;-82
2022/01/28 04:15:49;;;;;;;;;;;4.90;99.90;;;;;;5198434;27;20386;-82
2022/01/28 04:18:16;;;;;;;;;;;4.90;99.90;;;;;;5196852;27;25101;-82
2022/01/28 04:20:44;;;;;;;;;;;4.90;99.90;;;;;;5216642;27;20022;-82
2022/01/28 04:23:11;;;;;;;;;;;4.90;99.90;;;;;;5197759;27;25760;-82
2022/01/28 04:25:38;;;;;;;;;;;4.80;99.90;;;;;;5216331;27;20009;-82
2022/01/28 04:28:05;;;;;;;;;;;4.90;99.90;;;;;;5216096;27;20037;-82
2022/01/28 04:30:32;;;;;;;;;;;4.80;99.90;;;;;;5215609;27;27188;-82
2022/01/28 04:32:59;;;;;;;;;;;4.80;99.90;;;;;;5216419;27;21109;-82
2022/01/28 04:35:26;;;;;;;;;;;4.80;99.90;;;;;;5216088;27;20382;-82
2022/01/28 04:38:18;;;;;;;;;;;4.80;99.90;;;;;;5216037;27;27552;-82
2022/01/28 04:41:01;;;;;;;;;;;4.80;99.90;;;;;;5196900;27;44746;-82
2022/01/28 04:43:36;;;;;;;;;;;4.80;99.90;;;;;;5197100;27;43785;-82
2022/01/28 04:46:17;;;;;;;;;;;4.80;99.90;;;;;;5215610;27;43133;-82
2022/01/28 04:48:55;;;;;;;;;;;4.80;99.90;;;;;;5196063;27;44955;-82
2022/01/28 04:54:05;;;;;;;;;;;4.70;99.90;;;;;;5215853;27;44385;-82
2022/01/28 04:59:32;;;;;;;;;;;4.70;99.90;;;;;;5215469;27;40632;-82
2022/01/28 05:04:52;;;;;;;;;;;4.70;99.90;;;;;;5215542;27;44862;-82
2022/01/28 05:10:29;;;;;;;;;;;4.70;99.90;;;;;;5216513;27;20478;-82
2022/01/28 05:26:55;;;;;;;;;;;4.60;99.90;;;;;;5216938;27;20006;-82
2022/01/28 05:29:11;;;;;;;;;;;4.70;99.90;;;;;;5214676;27;20051;-82
2022/01/28 05:31:38;;;;;;;;;;;4.60;99.90;;;;;;5216340;27;20002;-82
2022/01/28 05:34:05;;;;;;;;;;;4.60;99.90;;;;;;5198267;27;19996;-82
2022/01/28 05:36:34;;;;;;;;;;;4.60;99.90;;;;;;5180656;27;20041;-82
2022/01/28 05:39:01;;;;;;;;;;;4.60;99.90;;;;;;5217168;27;20043;-82
2022/01/28 05:41:28;;;;;;;;;;;4.60;99.90;;;;;;5199281;27;20009;-82
2022/01/28 05:43:56;;;;;;;;;;;4.60;99.90;;;;;;5199578;27;19996;-82
2022/01/28 05:46:27;;;;;;;;;;;4.60;99.90;;;;;;5181361;27;19999;-82
2022/01/28 05:48:56;;;;;;;;;;;4.60;99.90;;;;;;5217089;27;20012;-82
2022/01/28 05:51:23;;;;;;;;;;;4.60;99.90;;;;;;5217677;27;20011;-82
2022/01/28 05:53:51;;;;;;;;;;;4.60;99.90;;;;;;5198721;27;20003;-82
2022/01/28 05:56:18;;;;;;;;;;;4.60;99.90;;;;;;5217404;27;20003;-81
2022/01/28 05:58:45;;;;;;;;;;;4.60;99.90;;;;;;5217497;27;19999;-82
2022/01/28 06:01:12;;;;;;;;;;;4.60;99.90;;;;;;5217027;27;20050;-82
2022/01/28 06:03:39;;;;;;;;;;;4.60;99.90;;;;;;5198152;27;20000;-82
2022/01/28 06:06:08;;;;;;;;;;;4.60;99.90;;;;;;5216830;27;20014;-82
2022/01/28 06:08:35;;;;;;;;;;;4.50;99.90;;;;;;5198225;27;20002;-82
2022/01/28 06:11:03;;;;;;;;;;;4.60;99.90;;;;;;5217115;27;20035;-82
2022/01/28 06:13:30;;;;;;;;;;;4.50;99.90;;;;;;5217315;27;19999;-81
2022/01/28 06:15:57;;;;;;;;;;;4.60;99.90;;;;;;5199290;27;20003;-81
2022/01/28 06:18:30;;;;;;;;;;;4.50;99.90;;;;;;5199469;27;20364;-82
2022/01/28 06:21:02;;;;;;;;;;;4.50;99.90;;;;;;5181547;27;20000;-80
2022/01/28 06:23:35;;;;;;;;;;;4.50;99.90;;;;;;5217476;27;20021;-80
2022/01/28 06:26:02;;;;;;;;;;;4.50;99.90;;;;;;5216398;27;43647;-80
2022/01/28 06:28:36;;;;;;;;;;;4.50;99.90;;;;;;5197991;27;42181;-80
2022/01/28 06:31:04;;;;;;;;;;;4.50;99.90;;;;;;5196843;27;45714;-81
2022/01/28 06:33:33;;;;;;;;;;;4.50;99.90;;;;;;5197552;27;43795;-81
2022/01/28 06:36:03;;;;;;;;;;;4.50;99.90;;;;;;5198752;27;20328;-80
2022/01/28 06:38:31;;;;;;;;;;;4.50;99.90;;;;;;5179506;27;39365;-80
2022/01/28 06:40:58;;;;;;;;;;;4.50;99.90;;;;;;5215870;27;38883;-81
2022/01/28 06:43:25;;;;;;;;;;;4.50;99.90;;;;;;5198160;27;20002;-80
2022/01/28 06:45:52;;;;;;;;;;;4.50;99.90;;;;;;5216547;27;41489;-80
2022/01/28 06:48:19;;;;;;;;;;;4.50;99.90;;;;;;5179611;27;38314;-81
2022/01/28 06:50:46;;;;;;;;;;;4.50;99.90;;;;;;5215760;27;40729;-80
2022/01/28 06:53:14;;;;;;;;;;;4.40;99.90;;;;;;5197236;27;23993;-81
2022/01/28 06:55:41;;;;;;;;;;;4.50;99.90;;;;;;5215583;27;44452;-80
2022/01/28 06:58:09;;;;;;;;;;;4.50;99.90;;;;;;5215691;27;40979;-80
2022/01/28 07:00:37;;;;;;;;;;;4.50;99.90;;;;;;5196674;27;44441;-81
2022/01/28 07:03:05;;;;;;;;;;;4.50;99.90;;;;;;5197674;27;20011;-80
2022/01/28 07:05:33;;;;;;;;;;;4.50;99.90;;;;;;5197453;27;42214;-80
2022/01/28 07:08:00;;;;;;;;;;;4.50;99.90;;;;;;5196818;27;37116;-80
2022/01/28 07:10:30;;;;;;;;;;;4.50;99.90;;;;;;5197685;27;43229;-81
2022/01/28 07:12:57;;;;;;;;;;;4.50;99.90;;;;;;5216100;27;32308;-80
2022/01/28 07:15:25;;;;;;;;;;;4.40;99.90;;;;;;5196788;27;35332;-80
2022/01/28 07:18:00;;;;;;;;;;;4.40;99.90;;;;;;5196723;27;42012;-80
2022/01/28 07:20:30;;;;;;;;;;;4.40;99.90;;;;;;5197853;27;19995;-80
2022/01/28 07:22:57;;;;;;;;;;;4.40;99.90;;;;;;5215673;27;43539;-80
2022/01/28 07:25:24;;;;;;;;;;;4.40;99.90;;;;;;5196647;27;40784;-85
2022/01/28 07:27:51;;;;;;;;;;;4.40;99.90;;;;;;5217256;27;20047;-83
2022/01/28 07:30:18;;;;;;;;;;;4.40;99.90;;;;;;5198099;27;20003;-84
2022/01/28 07:32:50;;;;;;;;;;;4.40;99.90;;;;;;5215312;27;42593;-84
2022/01/28 07:35:17;;;;;;;;;;;4.40;99.90;;;;;;5215992;27;44879;-84
2022/01/28 07:37:44;;;;;;;;;;;4.40;99.90;;;;;;5197298;27;34995;-84
2022/01/28 07:40:11;;;;;;;;;;;4.40;99.90;;;;;;5196703;27;35679;-84
2022/01/28 07:42:41;;;;;;;;;;;4.40;99.90;;;;;;5196187;27;46162;-84
2022/01/28 07:45:14;;;;;;;;;;;4.40;99.90;;;;;;5215834;27;27516;-84
2022/01/28 07:47:41;;;;;;;;;;;4.40;99.90;;;;;;5197024;27;31618;-84
2022/01/28 07:50:14;;;;;;;;;;;4.40;99.90;;;;;;5196534;27;42249;-83
2022/01/28 07:52:44;;;;;;;;;;;4.40;99.90;;;;;;5197671;27;19988;-84
2022/01/28 07:55:12;;;;;;;;;;;4.40;99.90;;;;;;5196389;27;39201;-84
2022/01/28 07:57:40;;;;;;;;;;;4.40;99.90;;;;;;5179042;27;38924;-84
2022/01/28 08:00:09;;;;;;;;;;;4.30;99.90;;;;;;5179349;27;35386;-84
2022/01/28 08:02:36;;;;;;;;;;;4.30;99.90;;;;;;5196173;27;44699;-84
2022/01/28 08:05:06;;;;;;;;;;;4.30;99.90;;;;;;5197425;27;31504;-84
2022/01/28 08:07:33;;;;;;;;;;;4.30;99.90;;;;;;5215545;27;41682;-84
2022/01/28 08:10:00;;;;;;;;;;;4.30;99.90;;;;;;5196193;27;42520;-84
2022/01/28 08:12:27;;;;;;;;;;;4.30;99.90;;;;;;5197119;27;19999;-84
2022/01/28 08:14:54;;;;;;;;;;;4.30;99.90;;;;;;5195926;27;46416;-84
2022/01/28 08:17:24;;;;;;;;;;;4.30;99.90;;;;;;5196409;27;44533;-84
2022/01/28 08:19:51;;;;;;;;;;;4.30;99.90;;;;;;5215002;27;38088;-84
2022/01/28 08:22:18;;;;;;;;;;;4.30;99.90;;;;;;5215766;27;35701;-84
2022/01/28 08:24:45;;;;;;;;;;;4.30;99.90;;;;;;5196835;27;36461;-84
2022/01/28 08:27:12;;;;;;;;;;;4.30;99.90;;;;;;5215107;27;34447;-84
2022/01/28 08:29:40;;;;;;;;;;;4.30;99.90;;;;;;5215101;27;41146;-84
2022/01/28 08:32:12;;;;;;;;;;;4.30;99.90;;;;;;5198158;27;22617;-84
2022/01/28 08:34:40;;;;;;;;;;;4.30;99.90;;;;;;5196015;27;38941;-85
2022/01/28 08:37:07;;;;;;;;;;;4.30;99.90;;;;;;5178287;27;45403;-83
2022/01/28 08:39:37;;;;;;;;;;;4.30;99.90;;;;;;5179160;27;33778;-84
2022/01/28 08:42:04;;;;;;;;;;;4.30;99.90;;;;;;5197778;27;20072;-83
2022/01/28 08:44:31;;;;;;;;;;;4.30;99.90;;;;;;5216642;27;20438;-82
2022/01/28 08:46:58;;;;;;;;;;;4.30;99.90;;;;;;5196517;27;42377;-82
2022/01/28 08:49:28;;;;;;;;;;;4.30;99.90;;;;;;5197045;27;30608;-84
2022/01/28 08:51:56;;;;;;;;;;;4.30;99.90;;;;;;5196921;27;32031;-84
2022/01/28 08:54:23;;;;;;;;;;;4.30;99.90;;;;;;5197474;27;27026;-84
2022/01/28 08:56:50;;;;;;;;;;;4.30;99.90;;;;;;5178754;27;37113;-84
2022/01/28 08:59:36;;;;;;;;;;;4.30;99.90;;;;;;5199852;27;34589;-84
2022/01/28 09:02:03;;;;;;;;;;;4.30;99.90;;;;;;5196382;27;36234;-84
2022/01/28 09:04:30;;;;;;;;;;;4.30;99.90;;;;;;5195952;27;45031;-84
2022/01/28 09:06:58;;;;;;;;;;;4.30;99.90;;;;;;5216291;27;20007;-84
2022/01/28 09:09:25;;;;;;;;;;;4.30;99.90;;;;;;5197824;27;32248;-84
2022/01/28 09:14:25;;;;;;;;;;;4.30;99.90;;;;;;5217364;27;27519;-84
2022/01/28 09:16:52;;;;;;;;;;;4.20;99.90;;;;;;5216028;27;43907;-84
2022/01/28 09:19:19;;;;;;;;;;;4.20;99.90;;;;;;5180176;27;37891;-85
2022/01/28 09:21:46;;;;;;;;;;;4.20;99.90;;;;;;5197293;27;41882;-84
2022/01/28 09:24:13;;;;;;;;;;;4.20;99.90;;;;;;5180117;27;39632;-84
2022/01/28 09:26:40;;;;;;;;;;;4.20;99.90;;;;;;5217470;27;25343;-85
2022/01/28 09:29:08;;;;;;;;;;;4.20;99.90;;;;;;5198125;27;42551;-84
2022/01/28 09:31:38;;;;;;;;;;;4.20;99.90;;;;;;5216952;27;21083;-84
2022/01/28 09:34:05;;;;;;;;;;;4.20;99.90;;;;;;5180082;27;36677;-84
2022/01/28 09:36:35;;;;;;;;;;;4.20;99.90;;;;;;5216932;27;44088;-84
2022/01/28 09:39:02;;;;;;;;;;;4.20;99.90;;;;;;5198336;27;34590;-84
2022/01/28 09:41:30;;;;;;;;;;;4.20;99.90;;;;;;5197462;27;34910;-84
2022/01/28 09:44:00;;;;;;;;;;;4.20;99.90;;;;;;5199115;27;20427;-84
2022/01/28 09:46:27;;;;;;;;;;;4.20;99.90;;;;;;5197559;27;32016;-84
2022/01/28 09:48:57;;;;;;;;;;;4.20;99.90;;;;;;5216347;27;35151;-84
2022/01/28 09:51:24;;;;;;;;;;;4.20;99.90;;;;;;5216063;27;42751;-84
2022/01/28 09:53:51;;;;;;;;;;;4.20;99.90;;;;;;5197126;27;39898;-84
2022/01/28 09:56:21;;;;;;;;;;;4.20;99.90;;;;;;5198074;27;34495;-84
2022/01/28 09:58:48;;;;;;;;;;;4.20;99.90;;;;;;5216122;27;39199;-84
2022/01/28 10:01:16;;;;;;;;;;;4.20;99.90;;;;;;5197458;27;35680;-84
2022/01/28 10:03:43;;;;;;;;;;;4.20;99.90;;;;;;5197300;27;35474;-84
2022/01/28 10:06:11;;;;;;;;;;;4.20;99.90;;;;;;5196798;27;45561;-84
2022/01/28 10:08:38;;;;;;;;;;;4.20;99.90;;;;;;5215909;27;37074;-84
2022/01/28 10:11:16;;;;;;;;;;;4.20;99.90;;;;;;5216525;27;20352;-85
2022/01/28 10:13:48;;;;;;;;;;;4.20;99.90;;;;;;5197533;27;40371;-86
2022/01/28 10:16:26;;;;;;;;;;;4.30;99.90;;;;;;5217918;27;20027;-84
2022/01/28 10:18:57;;;;;;;;;;;4.30;99.90;;;;;;5216670;27;34671;-85
2022/01/28 10:21:30;;;;;;;;;;;4.30;99.90;;;;;;5216535;27;43568;-84
2022/01/28 10:23:57;;;;;;;;;;;4.30;99.90;;;;;;5197974;27;20050;-84
2022/01/28 10:26:35;;;;;;;;;;;4.30;99.90;;;;;;5198164;27;20031;-84
2022/01/28 10:29:04;;;;;;;;;;;4.30;99.90;;;;;;5217765;27;20012;-84
2022/01/28 10:31:35;;;;;;;;;;;4.30;99.90;;;;;;5217578;27;20011;-84
2022/01/28 10:34:19;;;;;;;;;;;4.30;99.90;;;;;;5180280;27;19992;-84
2022/01/28 10:36:46;;;;;;;;;;;4.30;99.90;;;;;;5198786;27;19995;-84
2022/01/28 10:39:18;;;;;;;;;;;4.30;99.90;;;;;;5196758;27;41259;-85
2022/01/28 10:41:56;;;;;;;;;;;4.30;99.90;;;;;;5197044;27;31129;-85
2022/01/28 10:44:25;;;;;;;;;;;4.30;99.90;;;;;;5197954;27;20399;-84
2022/01/28 10:46:57;;;;;;;;;;;4.30;99.90;;;;;;5198519;27;20417;-84
2022/01/28 10:49:28;;;;;;;;;;;4.30;99.90;;;;;;5179495;27;46777;-85
2022/01/28 10:52:02;;;;;;;;;;;4.30;99.90;;;;;;5216702;27;37585;-85
2022/01/28 10:54:29;;;;;;;;;;;4.30;99.90;;;;;;5197978;27;26694;-85
2022/01/28 10:56:57;;;;;;;;;;;4.30;99.90;;;;;;5196780;27;40430;-85
2022/01/28 10:59:26;;;;;;;;;;;4.30;99.90;;;;;;5197780;27;20029;-84
2022/01/28 11:01:56;;;;;;;;;;;4.40;99.90;;;;;;5198742;27;20055;-84
2022/01/28 11:04:24;;;;;;;;;;;4.40;99.90;;;;;;5197415;27;32830;-85
2022/01/28 11:06:53;;;;;;;;;;;4.40;99.90;;;;;;5196884;27;35528;-84
2022/01/28 11:09:21;;;;;;;;;;;4.40;99.90;;;;;;5215633;27;35436;-86
2022/01/28 11:11:48;;;;;;;;;;;4.40;99.90;;;;;;5196660;27;42844;-85
2022/01/28 11:14:16;;;;;;;;;;;4.40;99.90;;;;;;5216390;27;43465;-85
2022/01/28 11:16:43;;;;;;;;;;;4.40;99.90;;;;;;5197713;27;22784;-84
2022/01/28 11:19:12;;;;;;;;;;;4.40;99.90;;;;;;5197809;27;20011;-85
2022/01/28 11:22:08;;;;;;;;;;;4.40;99.90;;;;;;5196916;27;38217;-84
2022/01/28 11:24:54;;;;;;;;;;;4.40;99.90;;;;;;5215638;27;42836;-84
2022/01/28 11:27:21;;;;;;;;;;;4.50;99.90;;;;;;5197700;27;35095;-84
2022/01/28 11:29:48;;;;;;;;;;;4.50;99.90;;;;;;5197228;27;28270;-84
2022/01/28 11:32:17;;;;;;;;;;;4.50;99.90;;;;;;5179985;27;26728;-85
2022/01/28 11:34:57;;;;;;;;;;;4.50;99.90;;;;;;5216145;27;34250;-84
2022/01/28 11:37:24;;;;;;;;;;;4.50;99.90;;;;;;5180030;27;26598;-85
2022/01/28 11:39:51;;;;;;;;;;;4.60;99.90;;;;;;5198571;27;20009;-84
2022/01/28 11:42:26;;;;;;;;;;;4.60;99.90;;;;;;5180590;27;19998;-84
2022/01/28 11:44:58;;;;;;;;;;;4.60;99.90;;;;;;5198533;27;20036;-84
2022/01/28 11:47:27;;;;;;;;;;;4.60;99.90;;;;;;5216784;27;20043;-84
2022/01/28 11:50:07;;;;;;;;;;;4.60;99.90;;;;;;5181149;27;20035;-84
2022/01/28 11:52:34;;;;;;;;;;;4.60;99.90;;;;;;5197508;27;20043;-84
2022/01/28 11:55:14;;;;;;;;;;;4.60;99.90;;;;;;5180126;27;20006;-84
2022/01/28 11:57:51;;;;;;;;;;;4.60;99.90;;;;;;5198526;27;19996;-84
2022/01/28 12:00:23;;;;;;;;;;;4.60;99.90;;;;;;5197706;27;29316;-86
2022/01/28 12:02:51;;;;;;;;;;;4.60;99.90;;;;;;5196297;27;41221;-85
2022/01/28 12:05:31;;;;;;;;;;;4.60;99.90;;;;;;5197827;27;20000;-85
2022/01/28 12:08:03;;;;;;;;;;;4.70;99.90;;;;;;5197473;27;20002;-84
2022/01/28 12:10:33;;;;;;;;;;;4.60;99.90;;;;;;5216777;27;20392;-83
2022/01/28 12:13:02;;;;;;;;;;;4.70;99.90;;;;;;5216647;27;20098;-84
2022/01/28 12:15:31;;;;;;;;;;;4.70;99.90;;;;;;5180460;27;20002;-84
2022/01/28 12:18:18;;;;;;;;;;;4.70;99.90;;;;;;5198111;27;20000;-84
2022/01/28 12:20:46;;;;;;;;;;;4.70;99.90;;;;;;5216909;27;19996;-83
2022/01/28 12:23:14;;;;;;;;;;;4.70;99.90;;;;;;5197409;27;20065;-84
2022/01/28 12:25:41;;;;;;;;;;;4.70;99.90;;;;;;5180295;27;20352;-84
2022/01/28 12:28:25;;;;;;;;;;;4.70;99.90;;;;;;5197282;27;20347;-84
2022/01/28 12:31:03;;;;;;;;;;;4.70;99.90;;;;;;5197049;27;20460;-84
2022/01/28 12:33:33;;;;;;;;;;;4.70;99.90;;;;;;5198488;27;20014;-84
2022/01/28 12:36:14;;;;;;;;;;;4.70;99.90;;;;;;5180320;27;19999;-84
2022/01/28 12:38:45;;;;;;;;;;;4.70;99.90;;;;;;5217500;27;20015;-84
2022/01/28 12:41:14;;;;;;;;;;;4.70;99.90;;;;;;5216714;27;20008;-84
2022/01/28 12:43:44;;;;;;;;;;;4.80;99.90;;;;;;5198935;27;20420;-84
2022/01/28 12:46:14;;;;;;;;;;;4.70;99.90;;;;;;5199592;27;20051;-84
2022/01/28 12:48:48;;;;;;;;;;;4.70;99.90;;;;;;5181620;27;20015;-84
2022/01/28 12:51:16;;;;;;;;;;;4.80;99.90;;;;;;5181814;27;20035;-84
2022/01/28 12:53:45;;;;;;;;;;;4.70;99.90;;;;;;5199292;27;20019;-84
2022/01/28 12:56:16;;;;;;;;;;;4.80;99.90;;;;;;5217916;27;20126;-84
2022/01/28 12:58:50;;;;;;;;;;;4.80;99.90;;;;;;5181682;27;19999;-84
2022/01/28 13:01:19;;;;;;;;;;;4.70;99.90;;;;;;5182044;27;20393;-84
2022/01/28 13:03:56;;;;;;;;;;;4.80;99.90;;;;;;5182036;27;20437;-84
2022/01/28 13:06:42;;;;;;;;;;;4.80;99.90;;;;;;5218238;27;20062;-84
2022/01/28 13:09:14;;;;;;;;;;;4.80;99.90;;;;;;5199021;27;29499;-85
2022/01/28 13:11:45;;;;;;;;;;;4.80;99.90;;;;;;5200178;27;19996;-85
2022/01/28 13:14:14;;;;;;;;;;;4.80;99.90;;;;;;5199015;27;19999;-85
2022/01/28 13:16:44;;;;;;;;;;;4.80;99.90;;;;;;5181757;27;19994;-85
2022/01/28 13:19:14;;;;;;;;;;;4.90;99.90;;;;;;5181426;27;19999;-84
2022/01/28 13:21:43;;;;;;;;;;;4.80;99.90;;;;;;5180686;27;20748;-85
2022/01/28 13:24:10;;;;;;;;;;;4.90;99.90;;;;;;5180288;27;40645;-85
2022/01/28 13:26:57;;;;;;;;;;;4.90;99.90;;;;;;5181577;27;20006;-85
2022/01/28 13:29:28;;;;;;;;;;;4.90;99.90;;;;;;5199763;27;20007;-84
2022/01/28 13:32:00;;;;;;;;;;;4.90;99.90;;;;;;5198628;27;19993;-84
2022/01/28 13:34:30;;;;;;;;;;;4.90;99.90;;;;;;5182805;27;20002;-84
2022/01/28 13:36:58;;;;;;;;;;;4.90;99.90;;;;;;5198879;27;20010;-84
2022/01/28 13:39:28;;;;;;;;;;;4.90;99.90;;;;;;5198626;27;20337;-85
2022/01/28 13:42:09;;;;;;;;;;;4.90;99.90;;;;;;5198890;27;20039;-85
2022/01/28 13:44:41;;;;;;;;;;;4.90;99.90;;;;;;5199040;27;19996;-84
2022/01/28 13:47:10;;;;;;;;;;;4.90;99.90;;;;;;5181566;27;20408;-84
2022/01/28 13:49:39;;;;;;;;;;;4.90;99.90;;;;;;5198620;27;20004;-85
2022/01/28 13:52:08;;;;;;;;;;;4.90;99.90;;;;;;5198926;27;20042;-84
2022/01/28 13:54:35;;;;;;;;;;;4.90;99.90;;;;;;5198871;27;20359;-84
2022/01/28 13:57:04;;;;;;;;;;;4.90;99.90;;;;;;5199354;27;20006;-84
2022/01/28 13:59:36;;;;;;;;;;;4.90;99.90;;;;;;5197511;27;37092;-85
2022/01/28 14:02:13;;;;;;;;;;;4.90;99.90;;;;;;5181529;27;20351;-84
2022/01/28 14:04:41;;;;;;;;;;;4.90;99.90;;;;;;5181309;27;19992;-84
2022/01/28 14:07:10;;;;;;;;;;;4.90;99.90;;;;;;5198204;27;20392;-84
2022/01/28 14:09:50;;;;;;;;;;;4.90;99.90;;;;;;5197914;27;21947;-84
2022/01/28 14:12:44;;;;;;;;;;;4.90;99.90;;;;;;5198148;27;30743;-85
2022/01/28 14:15:27;;;;;;;;;;;4.90;99.90;;;;;;5198177;27;27442;-85
2022/01/28 14:17:55;;;;;;;;;;;4.90;99.90;;;;;;5199010;27;20008;-84
2022/01/28 14:20:23;;;;;;;;;;;4.90;99.90;;;;;;5216998;27;20053;-84
2022/01/28 14:22:50;;;;;;;;;;;4.90;99.90;;;;;;5199097;27;20061;-85
2022/01/28 14:25:17;;;;;;;;;;;4.90;99.90;;;;;;5179328;27;45939;-85
2022/01/28 14:27:58;;;;;;;;;;;4.90;99.90;;;;;;5197704;27;44020;-84
2022/01/28 14:30:40;;;;;;;;;;;4.90;99.90;;;;;;5216295;27;37462;-84
2022/01/28 14:33:09;;;;;;;;;;;4.90;99.90;;;;;;5197372;27;35741;-84
2022/01/28 14:35:39;;;;;;;;;;;4.90;99.90;;;;;;5216691;27;20080;-84
2022/01/28 14:38:08;;;;;;;;;;;4.90;99.90;;;;;;5216961;27;20076;-84
2022/01/28 14:40:35;;;;;;;;;;;4.90;99.90;;;;;;5198297;27;20002;-84
2022/01/28 14:43:03;;;;;;;;;;;4.90;99.90;;;;;;5217228;27;20386;-84
2022/01/28 14:45:32;;;;;;;;;;;5.00;99.90;;;;;;5198512;27;20351;-84
2022/01/28 14:47:59;;;;;;;;;;;4.90;99.90;;;;;;5216539;27;27177;-84
2022/01/28 14:50:34;;;;;;;;;;;4.90;99.90;;;;;;5197813;27;36307;-84
2022/01/28 14:53:04;;;;;;;;;;;4.90;99.90;;;;;;5198064;27;19998;-84
2022/01/28 14:55:31;;;;;;;;;;;5.00;99.90;;;;;;5198205;27;20022;-84
2022/01/28 14:57:59;;;;;;;;;;;4.90;99.90;;;;;;5181043;27;20404;-84
2022/01/28 15:00:32;;;;;;;;;;;5.00;99.90;;;;;;5198752;27;20015;-84
2022/01/28 15:03:04;;;;;;;;;;;5.00;99.90;;;;;;5180635;27;19999;-84
2022/01/28 15:05:34;;;;;;;;;;;5.00;99.90;;;;;;5180923;27;20000;-84
2022/01/28 15:08:08;;;;;;;;;;;5.00;99.90;;;;;;5216510;27;32589;-84
2022/01/28 15:10:37;;;;;;;;;;;5.00;99.90;;;;;;5197846;27;36633;-84
2022/01/28 15:13:07;;;;;;;;;;;5.00;99.90;;;;;;5198044;27;26558;-84
2022/01/28 15:15:38;;;;;;;;;;;5.00;99.90;;;;;;5216303;27;36254;-84
2022/01/28 15:18:10;;;;;;;;;;;5.00;99.90;;;;;;5216231;27;31875;-84
2022/01/28 15:20:38;;;;;;;;;;;5.00;99.90;;;;;;5196809;27;34311;-84
2022/01/28 15:23:09;;;;;;;;;;;5.00;99.90;;;;;;5197982;27;33606;-84
2022/01/28 15:25:39;;;;;;;;;;;5.00;99.90;;;;;;5197651;27;37002;-85
2022/01/28 15:28:17;;;;;;;;;;;5.00;99.90;;;;;;5180093;27;42675;-84
2022/01/28 15:36:16;;;;;;;;;;;5.10;99.90;;;;;;5198130;27;20006;-85
2022/01/28 15:38:52;;;;;;;;;;;5.10;99.90;;;;;;5197164;27;31268;-85
2022/01/28 15:41:19;;;;;;;;;;;5.10;99.90;;;;;;5216357;27;31216;-84
2022/01/28 15:43:51;;;;;;;;;;;5.10;99.90;;;;;;5196756;27;31858;-85
2022/01/28 15:46:21;;;;;;;;;;;5.10;99.90;;;;;;5196757;27;39080;-85
2022/01/28 15:48:50;;;;;;;;;;;5.10;99.90;;;;;;5197065;27;29278;-85
2022/01/28 15:51:17;;;;;;;;;;;5.10;99.90;;;;;;5216061;27;31561;-85
2022/01/28 15:53:47;;;;;;;;;;;5.10;99.90;;;;;;5215673;27;31530;-85
2022/01/28 15:56:17;;;;;;;;;;;5.10;99.90;;;;;;5215456;27;40901;-85
2022/01/28 15:58:44;;;;;;;;;;;5.10;99.90;;;;;;5215373;27;40306;-85
2022/01/28 16:01:22;;;;;;;;;;;5.10;99.90;;;;;;5216309;27;30589;-85
2022/01/28 16:03:53;;;;;;;;;;;5.10;99.90;;;;;;5197160;27;41204;-85
2022/01/28 16:06:24;;;;;;;;;;;5.20;99.90;;;;;;5217066;27;19999;-85
2022/01/28 16:08:55;;;;;;;;;;;5.20;99.90;;;;;;5180508;27;20019;-85
2022/01/28 16:11:32;;;;;;;;;;;5.20;99.90;;;;;;5217599;27;20003;-85
2022/01/28 16:19:15;;;;;;;;;;;5.20;99.90;;;;;;5216690;27;20002;-84
2022/01/28 16:21:42;;;;;;;;;;;5.10;99.90;;;;;;5216667;27;20047;-84
2022/01/28 16:24:15;;;;;;;;;;;5.20;99.90;;;;;;5198649;27;19992;-84